sensor_id;sensor_type;location;lat;lon;timestamp;pressure;altitude;pressure_sealevel;temperature
15626;BMP180;7912;51.376;6.126;2023-06-24T00:01:13;102103.00;;;22.80
15626;BMP180;7912;51.376;6.126;2023-06-24T00:03:43;102109.00;;;22.80
15626;BMP180;7912;51.376;6.126;2023-06-24T00:06:22;102104.00;;;22.80
15626;BMP180;7912;51.376;6.126;2023-06-24T00:08:59;102101.00;;;22.80
15626;BMP180;7912;51.376;6.126;2023-06-24T00:11:34;102107.00;;;22.80
15626;BMP180;7912;51.376;6.126;2023-06-24T00:14:02;102108.00;;;22.80
15626;BMP180;7912;51.376;6.126;2023-06-24T00:16:30;102105.00;;;22.80
15626;BMP180;7912;51.376;6.126;2023-06-24T00:18:59;102100.00;;;22.80
15626;BMP180;7912;51.376;6.126;2023-06-24T00:21:28;102115.00;;;22.80
15626;BMP180;7912;51.376;6.126;2023-06-24T00:24:01;102106.00;;;22.80
15626;BMP180;7912;51.376;6.126;2023-06-24T00:26:32;102115.00;;;22.80
15626;BMP180;7912;51.376;6.126;2023-06-24T00:29:15;102110.00;;;22.80
15626;BMP180;7912;51.376;6.126;2023-06-24T00:31:46;102108.00;;;22.90
15626;BMP180;7912;51.376;6.126;2023-06-24T00:34:23;102101.00;;;23.00
15626;BMP180;7912;51.376;6.126;2023-06-24T00:36:55;102109.00;;;23.00
15626;BMP180;7912;51.376;6.126;2023-06-24T00:39:29;102113.00;;;23.10
15626;BMP180;7912;51.376;6.126;2023-06-24T00:42:06;102097.00;;;23.20
15626;BMP180;7912;51.376;6.126;2023-06-24T00:44:53;102099.00;;;23.20
15626;BMP180;7912;51.376;6.126;2023-06-24T00:47:28;102102.00;;;23.30
15626;BMP180;7912;51.376;6.126;2023-06-24T00:50:05;102103.00;;;23.30
15626;BMP180;7912;51.376;6.126;2023-06-24T00:52:33;102104.00;;;23.30
15626;BMP180;7912;51.376;6.126;2023-06-24T00:55:07;102098.00;;;23.40
15626;BMP180;7912;51.376;6.126;2023-06-24T00:57:37;102097.00;;;23.40
15626;BMP180;7912;51.376;6.126;2023-06-24T01:00:06;102094.00;;;23.40
15626;BMP180;7912;51.376;6.126;2023-06-24T01:06:42;102101.00;;;23.30
15626;BMP180;7912;51.376;6.126;2023-06-24T01:09:12;102094.00;;;23.30
15626;BMP180;7912;51.376;6.126;2023-06-24T01:11:48;102101.00;;;23.20
15626;BMP180;7912;51.376;6.126;2023-06-24T01:14:30;102095.00;;;23.20
15626;BMP180;7912;51.376;6.126;2023-06-24T01:17:22;102085.00;;;23.20
15626;BMP180;7912;51.376;6.126;2023-06-24T01:20:27;102097.00;;;23.10
15626;BMP180;7912;51.376;6.126;2023-06-24T01:34:59;102093.00;;;22.80
15626;BMP180;7912;51.376;6.126;2023-06-24T01:41:55;102078.00;;;22.60
15626;BMP180;7912;51.376;6.126;2023-06-24T01:44:35;102087.00;;;22.60
15626;BMP180;7912;51.376;6.126;2023-06-24T01:47:21;102079.00;;;22.50
15626;BMP180;7912;51.376;6.126;2023-06-24T01:49:54;102082.00;;;22.50
15626;BMP180;7912;51.376;6.126;2023-06-24T01:52:28;102084.00;;;22.50
15626;BMP180;7912;51.376;6.126;2023-06-24T01:55:00;102092.00;;;22.40
15626;BMP180;7912;51.376;6.126;2023-06-24T01:57:33;102095.00;;;22.40
15626;BMP180;7912;51.376;6.126;2023-06-24T02:00:05;102074.00;;;22.40
15626;BMP180;7912;51.376;6.126;2023-06-24T02:02:39;102090.00;;;22.40
15626;BMP180;7912;51.376;6.126;2023-06-24T02:05:09;102095.00;;;22.40
15626;BMP180;7912;51.376;6.126;2023-06-24T02:07:50;102085.00;;;22.30
15626;BMP180;7912;51.376;6.126;2023-06-24T02:10:20;102077.00;;;22.30
15626;BMP180;7912;51.376;6.126;2023-06-24T02:12:52;102072.00;;;22.20
15626;BMP180;7912;51.376;6.126;2023-06-24T02:15:22;102061.00;;;22.20
15626;BMP180;7912;51.376;6.126;2023-06-24T02:17:55;102072.00;;;22.10
15626;BMP180;7912;51.376;6.126;2023-06-24T02:20:26;102069.00;;;22.10
15626;BMP180;7912;51.376;6.126;2023-06-24T02:22:59;102081.00;;;22.00
15626;BMP180;7912;51.376;6.126;2023-06-24T02:25:28;102072.00;;;22.00
15626;BMP180;7912;51.376;6.126;2023-06-24T02:28:02;102087.00;;;21.90
15626;BMP180;7912;51.376;6.126;2023-06-24T02:30:30;102077.00;;;21.90
15626;BMP180;7912;51.376;6.126;2023-06-24T02:32:59;102083.00;;;21.80
15626;BMP180;7912;51.376;6.126;2023-06-24T02:35:27;102086.00;;;21.80
15626;BMP180;7912;51.376;6.126;2023-06-24T02:37:57;102080.00;;;21.80
15626;BMP180;7912;51.376;6.126;2023-06-24T02:40:26;102085.00;;;21.70
15626;BMP180;7912;51.376;6.126;2023-06-24T02:42:57;102072.00;;;21.70
15626;BMP180;7912;51.376;6.126;2023-06-24T02:45:32;102078.00;;;21.70
15626;BMP180;7912;51.376;6.126;2023-06-24T02:48:08;102086.00;;;21.70
15626;BMP180;7912;51.376;6.126;2023-06-24T02:50:41;102089.00;;;21.70
15626;BMP180;7912;51.376;6.126;2023-06-24T02:53:19;102082.00;;;21.70
15626;BMP180;7912;51.376;6.126;2023-06-24T02:55:51;102085.00;;;21.70
15626;BMP180;7912;51.376;6.126;2023-06-24T02:58:19;102081.00;;;21.70
15626;BMP180;7912;51.376;6.126;2023-06-24T03:00:47;102081.00;;;21.60
15626;BMP180;7912;51.376;6.126;2023-06-24T03:03:18;102090.00;;;21.60
15626;BMP180;7912;51.376;6.126;2023-06-24T03:05:47;102082.00;;;21.60
15626;BMP180;7912;51.376;6.126;2023-06-24T03:08:18;102082.00;;;21.60
15626;BMP180;7912;51.376;6.126;2023-06-24T03:10:46;102084.00;;;21.60
15626;BMP180;7912;51.376;6.126;2023-06-24T03:13:14;102087.00;;;21.50
15626;BMP180;7912;51.376;6.126;2023-06-24T03:15:47;102085.00;;;21.50
15626;BMP180;7912;51.376;6.126;2023-06-24T03:18:17;102074.00;;;21.50
15626;BMP180;7912;51.376;6.126;2023-06-24T03:20:46;102084.00;;;21.50
15626;BMP180;7912;51.376;6.126;2023-06-24T03:23:14;102077.00;;;21.50
15626;BMP180;7912;51.376;6.126;2023-06-24T03:25:42;102094.00;;;21.40
15626;BMP180;7912;51.376;6.126;2023-06-24T03:28:16;102087.00;;;21.40
15626;BMP180;7912;51.376;6.126;2023-06-24T03:30:45;102093.00;;;21.40
15626;BMP180;7912;51.376;6.126;2023-06-24T03:33:13;102094.00;;;21.40
15626;BMP180;7912;51.376;6.126;2023-06-24T03:35:44;102098.00;;;21.40
15626;BMP180;7912;51.376;6.126;2023-06-24T03:38:19;102109.00;;;21.40
15626;BMP180;7912;51.376;6.126;2023-06-24T03:40:53;102094.00;;;21.40
15626;BMP180;7912;51.376;6.126;2023-06-24T03:43:21;102092.00;;;21.40
15626;BMP180;7912;51.376;6.126;2023-06-24T03:45:50;102098.00;;;21.40
15626;BMP180;7912;51.376;6.126;2023-06-24T03:48:18;102088.00;;;21.40
15626;BMP180;7912;51.376;6.126;2023-06-24T03:50:45;102097.00;;;21.40
15626;BMP180;7912;51.376;6.126;2023-06-24T03:53:17;102098.00;;;21.30
15626;BMP180;7912;51.376;6.126;2023-06-24T03:55:45;102101.00;;;21.30
15626;BMP180;7912;51.376;6.126;2023-06-24T03:58:13;102108.00;;;21.30
15626;BMP180;7912;51.376;6.126;2023-06-24T04:00:41;102113.00;;;21.40
15626;BMP180;7912;51.376;6.126;2023-06-24T04:03:11;102096.00;;;21.40
15626;BMP180;7912;51.376;6.126;2023-06-24T04:05:39;102102.00;;;21.40
15626;BMP180;7912;51.376;6.126;2023-06-24T04:12:20;102119.00;;;21.30
15626;BMP180;7912;51.376;6.126;2023-06-24T04:14:50;102128.00;;;21.40
15626;BMP180;7912;51.376;6.126;2023-06-24T04:17:18;102126.00;;;21.40
15626;BMP180;7912;51.376;6.126;2023-06-24T04:19:48;102111.00;;;21.40
15626;BMP180;7912;51.376;6.126;2023-06-24T04:22:15;102122.00;;;21.40
15626;BMP180;7912;51.376;6.126;2023-06-24T04:24:46;102122.00;;;21.50
15626;BMP180;7912;51.376;6.126;2023-06-24T04:27:14;102129.00;;;21.50
15626;BMP180;7912;51.376;6.126;2023-06-24T04:29:42;102127.00;;;21.50
15626;BMP180;7912;51.376;6.126;2023-06-24T04:32:12;102109.00;;;21.60
15626;BMP180;7912;51.376;6.126;2023-06-24T04:34:40;102117.00;;;21.60
15626;BMP180;7912;51.376;6.126;2023-06-24T04:37:08;102128.00;;;21.60
15626;BMP180;7912;51.376;6.126;2023-06-24T04:39:36;102119.00;;;21.70
15626;BMP180;7912;51.376;6.126;2023-06-24T04:42:07;102111.00;;;21.70
15626;BMP180;7912;51.376;6.126;2023-06-24T04:44:40;102107.00;;;21.70
15626;BMP180;7912;51.376;6.126;2023-06-24T04:47:08;102111.00;;;21.80
15626;BMP180;7912;51.376;6.126;2023-06-24T04:49:35;102113.00;;;21.80
15626;BMP180;7912;51.376;6.126;2023-06-24T04:52:03;102108.00;;;21.80
15626;BMP180;7912;51.376;6.126;2023-06-24T04:54:36;102104.00;;;21.90
15626;BMP180;7912;51.376;6.126;2023-06-24T04:57:23;102111.00;;;21.90
15626;BMP180;7912;51.376;6.126;2023-06-24T04:59:51;102111.00;;;21.90
15626;BMP180;7912;51.376;6.126;2023-06-24T05:02:18;102115.00;;;22.00
15626;BMP180;7912;51.376;6.126;2023-06-24T05:04:48;102117.00;;;22.00
15626;BMP180;7912;51.376;6.126;2023-06-24T05:07:19;102120.00;;;22.00
15626;BMP180;7912;51.376;6.126;2023-06-24T05:09:50;102118.00;;;22.10
15626;BMP180;7912;51.376;6.126;2023-06-24T05:12:20;102111.00;;;22.10
15626;BMP180;7912;51.376;6.126;2023-06-24T05:14:51;102114.00;;;22.20
15626;BMP180;7912;51.376;6.126;2023-06-24T05:17:20;102127.00;;;22.20
15626;BMP180;7912;51.376;6.126;2023-06-24T05:19:48;102120.00;;;22.20
15626;BMP180;7912;51.376;6.126;2023-06-24T05:22:16;102113.00;;;22.20
15626;BMP180;7912;51.376;6.126;2023-06-24T05:24:44;102116.00;;;22.30
15626;BMP180;7912;51.376;6.126;2023-06-24T05:27:12;102122.00;;;22.30
15626;BMP180;7912;51.376;6.126;2023-06-24T05:29:39;102128.00;;;22.40
15626;BMP180;7912;51.376;6.126;2023-06-24T05:32:07;102108.00;;;22.40
15626;BMP180;7912;51.376;6.126;2023-06-24T05:34:36;102119.00;;;22.50
15626;BMP180;7912;51.376;6.126;2023-06-24T05:37:07;102126.00;;;22.50
15626;BMP180;7912;51.376;6.126;2023-06-24T05:39:38;102132.00;;;22.60
15626;BMP180;7912;51.376;6.126;2023-06-24T05:42:12;102116.00;;;22.60
15626;BMP180;7912;51.376;6.126;2023-06-24T05:44:46;102128.00;;;22.60
15626;BMP180;7912;51.376;6.126;2023-06-24T05:47:16;102122.00;;;22.70
15626;BMP180;7912;51.376;6.126;2023-06-24T05:49:50;102128.00;;;22.70
15626;BMP180;7912;51.376;6.126;2023-06-24T05:52:28;102137.00;;;22.80
15626;BMP180;7912;51.376;6.126;2023-06-24T05:54:56;102139.00;;;22.90
15626;BMP180;7912;51.376;6.126;2023-06-24T05:57:23;102138.00;;;22.90
15626;BMP180;7912;51.376;6.126;2023-06-24T05:59:51;102131.00;;;23.00
15626;BMP180;7912;51.376;6.126;2023-06-24T06:02:18;102137.00;;;23.00
15626;BMP180;7912;51.376;6.126;2023-06-24T06:04:47;102145.00;;;23.10
15626;BMP180;7912;51.376;6.126;2023-06-24T06:07:21;102132.00;;;23.20
15626;BMP180;7912;51.376;6.126;2023-06-24T06:09:56;102141.00;;;23.20
15626;BMP180;7912;51.376;6.126;2023-06-24T06:12:23;102150.00;;;23.30
15626;BMP180;7912;51.376;6.126;2023-06-24T06:14:53;102144.00;;;23.40
15626;BMP180;7912;51.376;6.126;2023-06-24T06:17:27;102141.00;;;23.50
15626;BMP180;7912;51.376;6.126;2023-06-24T06:19:54;102141.00;;;23.70
15626;BMP180;7912;51.376;6.126;2023-06-24T06:22:21;102142.00;;;24.10
15626;BMP180;7912;51.376;6.126;2023-06-24T06:24:48;102137.00;;;24.70
15626;BMP180;7912;51.376;6.126;2023-06-24T06:27:16;102131.00;;;25.30
15626;BMP180;7912;51.376;6.126;2023-06-24T06:29:43;102126.00;;;26.00
15626;BMP180;7912;51.376;6.126;2023-06-24T06:32:13;102138.00;;;26.60
15626;BMP180;7912;51.376;6.126;2023-06-24T06:34:43;102128.00;;;27.30
15626;BMP180;7912;51.376;6.126;2023-06-24T06:37:11;102129.00;;;28.00
15626;BMP180;7912;51.376;6.126;2023-06-24T06:39:38;102142.00;;;28.70
15626;BMP180;7912;51.376;6.126;2023-06-24T06:42:08;102136.00;;;29.40
15626;BMP180;7912;51.376;6.126;2023-06-24T06:44:38;102136.00;;;30.10
15626;BMP180;7912;51.376;6.126;2023-06-24T06:47:06;102129.00;;;30.60
15626;BMP180;7912;51.376;6.126;2023-06-24T06:49:34;102133.00;;;31.10
15626;BMP180;7912;51.376;6.126;2023-06-24T06:52:07;102142.00;;;31.70
15626;BMP180;7912;51.376;6.126;2023-06-24T06:54:37;102142.00;;;32.20
15626;BMP180;7912;51.376;6.126;2023-06-24T06:57:05;102144.00;;;32.50
15626;BMP180;7912;51.376;6.126;2023-06-24T06:59:33;102133.00;;;32.80
15626;BMP180;7912;51.376;6.126;2023-06-24T07:02:04;102147.00;;;33.10
15626;BMP180;7912;51.376;6.126;2023-06-24T07:04:32;102145.00;;;33.50
15626;BMP180;7912;51.376;6.126;2023-06-24T07:06:59;102145.00;;;33.90
15626;BMP180;7912;51.376;6.126;2023-06-24T07:09:27;102151.00;;;34.30
15626;BMP180;7912;51.376;6.126;2023-06-24T07:11:55;102144.00;;;34.70
15626;BMP180;7912;51.376;6.126;2023-06-24T07:14:22;102146.00;;;35.10
15626;BMP180;7912;51.376;6.126;2023-06-24T07:16:49;102154.00;;;35.40
15626;BMP180;7912;51.376;6.126;2023-06-24T07:19:17;102155.00;;;35.60
15626;BMP180;7912;51.376;6.126;2023-06-24T07:21:44;102159.00;;;35.90
15626;BMP180;7912;51.376;6.126;2023-06-24T07:24:11;102163.00;;;36.00
15626;BMP180;7912;51.376;6.126;2023-06-24T07:26:44;102165.00;;;36.20
15626;BMP180;7912;51.376;6.126;2023-06-24T07:29:12;102158.00;;;36.40
15626;BMP180;7912;51.376;6.126;2023-06-24T07:31:40;102161.00;;;36.60
15626;BMP180;7912;51.376;6.126;2023-06-24T07:34:10;102161.00;;;36.60
15626;BMP180;7912;51.376;6.126;2023-06-24T07:36:38;102164.00;;;36.50
15626;BMP180;7912;51.376;6.126;2023-06-24T07:39:05;102171.00;;;36.60
15626;BMP180;7912;51.376;6.126;2023-06-24T07:41:33;102166.00;;;36.70
15626;BMP180;7912;51.376;6.126;2023-06-24T07:44:03;102165.00;;;36.60
15626;BMP180;7912;51.376;6.126;2023-06-24T07:46:31;102166.00;;;36.50
15626;BMP180;7912;51.376;6.126;2023-06-24T07:48:58;102167.00;;;36.70
15626;BMP180;7912;51.376;6.126;2023-06-24T07:51:45;102169.00;;;36.90
15626;BMP180;7912;51.376;6.126;2023-06-24T07:54:12;102169.00;;;37.10
15626;BMP180;7912;51.376;6.126;2023-06-24T07:56:39;102158.00;;;37.40
15626;BMP180;7912;51.376;6.126;2023-06-24T07:59:07;102168.00;;;37.50
15626;BMP180;7912;51.376;6.126;2023-06-24T08:01:34;102175.00;;;37.60
15626;BMP180;7912;51.376;6.126;2023-06-24T08:04:02;102165.00;;;37.70
15626;BMP180;7912;51.376;6.126;2023-06-24T08:06:30;102163.00;;;38.00
15626;BMP180;7912;51.376;6.126;2023-06-24T08:08:58;102163.00;;;38.30
15626;BMP180;7912;51.376;6.126;2023-06-24T08:11:26;102175.00;;;38.60
15626;BMP180;7912;51.376;6.126;2023-06-24T08:13:53;102168.00;;;38.80
15626;BMP180;7912;51.376;6.126;2023-06-24T08:16:23;102162.00;;;38.80
15626;BMP180;7912;51.376;6.126;2023-06-24T08:18:52;102171.00;;;38.90
15626;BMP180;7912;51.376;6.126;2023-06-24T08:21:20;102169.00;;;39.10
15626;BMP180;7912;51.376;6.126;2023-06-24T08:23:50;102159.00;;;39.10
15626;BMP180;7912;51.376;6.126;2023-06-24T08:26:20;102164.00;;;39.20
15626;BMP180;7912;51.376;6.126;2023-06-24T08:28:48;102170.00;;;39.40
15626;BMP180;7912;51.376;6.126;2023-06-24T08:31:16;102158.00;;;39.50
15626;BMP180;7912;51.376;6.126;2023-06-24T08:33:44;102154.00;;;39.60
15626;BMP180;7912;51.376;6.126;2023-06-24T08:36:14;102162.00;;;39.80
15626;BMP180;7912;51.376;6.126;2023-06-24T08:38:42;102151.00;;;39.90
15626;BMP180;7912;51.376;6.126;2023-06-24T08:41:10;102155.00;;;40.00
15626;BMP180;7912;51.376;6.126;2023-06-24T08:43:37;102147.00;;;40.00
15626;BMP180;7912;51.376;6.126;2023-06-24T08:46:08;102150.00;;;40.00
15626;BMP180;7912;51.376;6.126;2023-06-24T08:48:38;102161.00;;;39.90
15626;BMP180;7912;51.376;6.126;2023-06-24T08:51:15;102154.00;;;39.90
15626;BMP180;7912;51.376;6.126;2023-06-24T08:53:50;102149.00;;;40.00
15626;BMP180;7912;51.376;6.126;2023-06-24T08:56:18;102150.00;;;40.00
15626;BMP180;7912;51.376;6.126;2023-06-24T08:58:45;102152.00;;;40.00
15626;BMP180;7912;51.376;6.126;2023-06-24T09:01:13;102154.00;;;40.00
15626;BMP180;7912;51.376;6.126;2023-06-24T09:03:40;102145.00;;;40.00
15626;BMP180;7912;51.376;6.126;2023-06-24T09:06:08;102146.00;;;40.20
15626;BMP180;7912;51.376;6.126;2023-06-24T09:08:35;102141.00;;;40.20
15626;BMP180;7912;51.376;6.126;2023-06-24T09:11:08;102148.00;;;40.20
15626;BMP180;7912;51.376;6.126;2023-06-24T09:13:37;102142.00;;;40.10
15626;BMP180;7912;51.376;6.126;2023-06-24T09:16:14;102141.00;;;40.00
15626;BMP180;7912;51.376;6.126;2023-06-24T09:18:56;102144.00;;;40.00
15626;BMP180;7912;51.376;6.126;2023-06-24T09:21:45;102132.00;;;40.10
15626;BMP180;7912;51.376;6.126;2023-06-24T09:24:13;102140.00;;;40.30
15626;BMP180;7912;51.376;6.126;2023-06-24T09:26:43;102132.00;;;40.40
15626;BMP180;7912;51.376;6.126;2023-06-24T09:29:14;102135.00;;;40.30
15626;BMP180;7912;51.376;6.126;2023-06-24T09:31:49;102126.00;;;40.30
15626;BMP180;7912;51.376;6.126;2023-06-24T09:34:20;102130.00;;;40.20
15626;BMP180;7912;51.376;6.126;2023-06-24T09:36:56;102125.00;;;40.20
15626;BMP180;7912;51.376;6.126;2023-06-24T09:39:25;102119.00;;;40.40
15626;BMP180;7912;51.376;6.126;2023-06-24T09:42:01;102121.00;;;40.50
15626;BMP180;7912;51.376;6.126;2023-06-24T09:44:29;102130.00;;;40.60
15626;BMP180;7912;51.376;6.126;2023-06-24T09:46:57;102129.00;;;40.60
15626;BMP180;7912;51.376;6.126;2023-06-24T09:49:24;102113.00;;;40.50
15626;BMP180;7912;51.376;6.126;2023-06-24T09:51:57;102118.00;;;40.60
15626;BMP180;7912;51.376;6.126;2023-06-24T09:54:27;102113.00;;;40.70
15626;BMP180;7912;51.376;6.126;2023-06-24T09:57:03;102114.00;;;40.70
15626;BMP180;7912;51.376;6.126;2023-06-24T09:59:32;102126.00;;;40.70
15626;BMP180;7912;51.376;6.126;2023-06-24T10:02:03;102116.00;;;40.70
15626;BMP180;7912;51.376;6.126;2023-06-24T10:04:32;102112.00;;;40.90
15626;BMP180;7912;51.376;6.126;2023-06-24T10:07:00;102105.00;;;41.10
15626;BMP180;7912;51.376;6.126;2023-06-24T10:09:29;102100.00;;;41.30
15626;BMP180;7912;51.376;6.126;2023-06-24T10:11:57;102096.00;;;41.70
15626;BMP180;7912;51.376;6.126;2023-06-24T10:14:28;102099.00;;;42.00
15626;BMP180;7912;51.376;6.126;2023-06-24T10:17:05;102094.00;;;42.10
15626;BMP180;7912;51.376;6.126;2023-06-24T10:19:39;102097.00;;;42.20
15626;BMP180;7912;51.376;6.126;2023-06-24T10:22:09;102099.00;;;42.40
15626;BMP180;7912;51.376;6.126;2023-06-24T10:24:41;102092.00;;;42.50
15626;BMP180;7912;51.376;6.126;2023-06-24T10:27:50;102098.00;;;42.30
15626;BMP180;7912;51.376;6.126;2023-06-24T10:30:21;102085.00;;;42.30
15626;BMP180;7912;51.376;6.126;2023-06-24T10:32:55;102087.00;;;42.30
15626;BMP180;7912;51.376;6.126;2023-06-24T10:35:26;102083.00;;;42.60
15626;BMP180;7912;51.376;6.126;2023-06-24T10:38:01;102083.00;;;42.90
15626;BMP180;7912;51.376;6.126;2023-06-24T10:40:41;102073.00;;;43.00
15626;BMP180;7912;51.376;6.126;2023-06-24T10:43:26;102075.00;;;43.00
15626;BMP180;7912;51.376;6.126;2023-06-24T10:45:56;102069.00;;;43.10
15626;BMP180;7912;51.376;6.126;2023-06-24T10:48:25;102072.00;;;43.10
15626;BMP180;7912;51.376;6.126;2023-06-24T10:50:52;102070.00;;;43.00
15626;BMP180;7912;51.376;6.126;2023-06-24T10:53:22;102072.00;;;43.00
15626;BMP180;7912;51.376;6.126;2023-06-24T10:55:50;102073.00;;;42.70
15626;BMP180;7912;51.376;6.126;2023-06-24T10:58:17;102071.00;;;42.50
15626;BMP180;7912;51.376;6.126;2023-06-24T11:00:45;102066.00;;;42.50
15626;BMP180;7912;51.376;6.126;2023-06-24T11:03:15;102063.00;;;42.60
15626;BMP180;7912;51.376;6.126;2023-06-24T11:05:46;102069.00;;;42.60
15626;BMP180;7912;51.376;6.126;2023-06-24T11:08:13;102067.00;;;42.50
15626;BMP180;7912;51.376;6.126;2023-06-24T11:10:48;102064.00;;;42.50
15626;BMP180;7912;51.376;6.126;2023-06-24T11:13:20;102069.00;;;42.40
15626;BMP180;7912;51.376;6.126;2023-06-24T11:15:50;102068.00;;;42.30
15626;BMP180;7912;51.376;6.126;2023-06-24T11:18:20;102070.00;;;42.40
15626;BMP180;7912;51.376;6.126;2023-06-24T11:20:47;102059.00;;;42.60
15626;BMP180;7912;51.376;6.126;2023-06-24T11:23:14;102048.00;;;42.70
15626;BMP180;7912;51.376;6.126;2023-06-24T11:25:43;102058.00;;;42.50
15626;BMP180;7912;51.376;6.126;2023-06-24T11:28:17;102064.00;;;42.10
15626;BMP180;7912;51.376;6.126;2023-06-24T11:30:48;102059.00;;;41.60
15626;BMP180;7912;51.376;6.126;2023-06-24T11:33:29;102062.00;;;41.40
15626;BMP180;7912;51.376;6.126;2023-06-24T11:35:57;102049.00;;;41.50
15626;BMP180;7912;51.376;6.126;2023-06-24T11:38:24;102058.00;;;41.60
15626;BMP180;7912;51.376;6.126;2023-06-24T11:40:59;102049.00;;;41.80
15626;BMP180;7912;51.376;6.126;2023-06-24T11:43:26;102046.00;;;41.90
15626;BMP180;7912;51.376;6.126;2023-06-24T11:45:54;102048.00;;;42.00
15626;BMP180;7912;51.376;6.126;2023-06-24T11:48:21;102045.00;;;42.00
15626;BMP180;7912;51.376;6.126;2023-06-24T11:50:55;102040.00;;;41.80
15626;BMP180;7912;51.376;6.126;2023-06-24T11:53:41;102039.00;;;41.60
15626;BMP180;7912;51.376;6.126;2023-06-24T11:56:10;102045.00;;;41.40
15626;BMP180;7912;51.376;6.126;2023-06-24T11:58:38;102040.00;;;41.30
15626;BMP180;7912;51.376;6.126;2023-06-24T12:01:09;102041.00;;;41.30
15626;BMP180;7912;51.376;6.126;2023-06-24T12:03:36;102033.00;;;41.60
15626;BMP180;7912;51.376;6.126;2023-06-24T12:06:04;102033.00;;;42.10
15626;BMP180;7912;51.376;6.126;2023-06-24T12:08:31;102036.00;;;42.50
15626;BMP180;7912;51.376;6.126;2023-06-24T12:11:17;102024.00;;;42.60
15626;BMP180;7912;51.376;6.126;2023-06-24T12:13:44;102028.00;;;42.50
15626;BMP180;7912;51.376;6.126;2023-06-24T12:16:11;102035.00;;;42.20
15626;BMP180;7912;51.376;6.126;2023-06-24T12:18:39;102036.00;;;42.20
15626;BMP180;7912;51.376;6.126;2023-06-24T12:21:06;102022.00;;;42.30
15626;BMP180;7912;51.376;6.126;2023-06-24T12:23:33;102025.00;;;42.50
15626;BMP180;7912;51.376;6.126;2023-06-24T12:26:00;102026.00;;;42.70
15626;BMP180;7912;51.376;6.126;2023-06-24T12:28:28;102022.00;;;42.90
15626;BMP180;7912;51.376;6.126;2023-06-24T12:30:55;102019.00;;;42.90
15626;BMP180;7912;51.376;6.126;2023-06-24T12:33:22;102024.00;;;42.70
15626;BMP180;7912;51.376;6.126;2023-06-24T12:35:50;102023.00;;;42.80
15626;BMP180;7912;51.376;6.126;2023-06-24T12:38:17;102014.00;;;43.00
15626;BMP180;7912;51.376;6.126;2023-06-24T12:40:44;102006.00;;;43.40
15626;BMP180;7912;51.376;6.126;2023-06-24T12:43:12;102004.00;;;43.80
15626;BMP180;7912;51.376;6.126;2023-06-24T12:45:41;102008.00;;;44.20
15626;BMP180;7912;51.376;6.126;2023-06-24T12:48:13;101997.00;;;44.50
15626;BMP180;7912;51.376;6.126;2023-06-24T12:50:41;102003.00;;;44.80
15626;BMP180;7912;51.376;6.126;2023-06-24T12:53:09;101997.00;;;45.00
15626;BMP180;7912;51.376;6.126;2023-06-24T12:55:59;102004.00;;;45.00
15626;BMP180;7912;51.376;6.126;2023-06-24T12:58:27;102003.00;;;45.10
15626;BMP180;7912;51.376;6.126;2023-06-24T13:00:54;101993.00;;;45.40
15626;BMP180;7912;51.376;6.126;2023-06-24T13:03:22;102002.00;;;45.60
15626;BMP180;7912;51.376;6.126;2023-06-24T13:05:49;101998.00;;;45.50
15626;BMP180;7912;51.376;6.126;2023-06-24T13:08:16;101992.00;;;45.20
15626;BMP180;7912;51.376;6.126;2023-06-24T13:14:08;101995.00;;;44.90
15626;BMP180;7912;51.376;6.126;2023-06-24T13:16:37;101990.00;;;45.10
15626;BMP180;7912;51.376;6.126;2023-06-24T13:19:04;101986.00;;;45.30
15626;BMP180;7912;51.376;6.126;2023-06-24T13:21:32;101983.00;;;45.50
15626;BMP180;7912;51.376;6.126;2023-06-24T13:23:59;101985.00;;;45.70
15626;BMP180;7912;51.376;6.126;2023-06-24T13:26:26;101984.00;;;45.80
15626;BMP180;7912;51.376;6.126;2023-06-24T13:28:54;101980.00;;;45.90
15626;BMP180;7912;51.376;6.126;2023-06-24T13:31:21;101974.00;;;46.10
15626;BMP180;7912;51.376;6.126;2023-06-24T13:33:49;101971.00;;;46.30
15626;BMP180;7912;51.376;6.126;2023-06-24T13:36:35;101973.00;;;46.40
15626;BMP180;7912;51.376;6.126;2023-06-24T13:39:05;101960.00;;;46.40
15626;BMP180;7912;51.376;6.126;2023-06-24T13:44:58;101973.00;;;45.70
15626;BMP180;7912;51.376;6.126;2023-06-24T13:47:26;101970.00;;;45.10
15626;BMP180;7912;51.376;6.126;2023-06-24T13:49:53;101976.00;;;44.40
15626;BMP180;7912;51.376;6.126;2023-06-24T13:52:20;101981.00;;;43.90
15626;BMP180;7912;51.376;6.126;2023-06-24T13:54:48;101975.00;;;43.70
15626;BMP180;7912;51.376;6.126;2023-06-24T13:57:17;101977.00;;;43.70
15626;BMP180;7912;51.376;6.126;2023-06-24T13:59:45;101971.00;;;43.90
15626;BMP180;7912;51.376;6.126;2023-06-24T14:02:12;101977.00;;;44.00
15626;BMP180;7912;51.376;6.126;2023-06-24T14:04:39;101970.00;;;44.10
15626;BMP180;7912;51.376;6.126;2023-06-24T14:07:07;101968.00;;;44.10
15626;BMP180;7912;51.376;6.126;2023-06-24T14:09:36;101958.00;;;44.20
15626;BMP180;7912;51.376;6.126;2023-06-24T14:12:43;101968.00;;;44.70
15626;BMP180;7912;51.376;6.126;2023-06-24T14:15:11;101957.00;;;45.20
15626;BMP180;7912;51.376;6.126;2023-06-24T14:17:38;101950.00;;;45.40
15626;BMP180;7912;51.376;6.126;2023-06-24T14:20:06;101955.00;;;45.60
15626;BMP180;7912;51.376;6.126;2023-06-24T14:22:34;101950.00;;;45.80
15626;BMP180;7912;51.376;6.126;2023-06-24T14:25:01;101947.00;;;45.60
15626;BMP180;7912;51.376;6.126;2023-06-24T14:27:29;101957.00;;;45.00
15626;BMP180;7912;51.376;6.126;2023-06-24T14:29:56;101959.00;;;44.20
15626;BMP180;7912;51.376;6.126;2023-06-24T14:32:23;101955.00;;;43.60
15626;BMP180;7912;51.376;6.126;2023-06-24T14:34:54;101959.00;;;43.40
15626;BMP180;7912;51.376;6.126;2023-06-24T14:37:23;101953.00;;;43.50
15626;BMP180;7912;51.376;6.126;2023-06-24T14:39:51;101959.00;;;43.50
15626;BMP180;7912;51.376;6.126;2023-06-24T14:42:18;101955.00;;;43.50
15626;BMP180;7912;51.376;6.126;2023-06-24T14:44:45;101947.00;;;43.50
15626;BMP180;7912;51.376;6.126;2023-06-24T14:47:13;101947.00;;;43.50
15626;BMP180;7912;51.376;6.126;2023-06-24T14:49:40;101943.00;;;43.50
15626;BMP180;7912;51.376;6.126;2023-06-24T14:52:08;101945.00;;;43.50
15626;BMP180;7912;51.376;6.126;2023-06-24T14:54:35;101941.00;;;43.70
15626;BMP180;7912;51.376;6.126;2023-06-24T14:57:02;101939.00;;;43.80
15626;BMP180;7912;51.376;6.126;2023-06-24T14:59:30;101942.00;;;43.90